createdAt,value
2018-03-16T00:00:37.533Z,13.97
2018-03-16T00:03:05.026Z,14.90
2018-03-16T00:05:32.550Z,15.70
2018-03-16T00:08:00.054Z,14.63
2018-03-16T00:10:27.582Z,14.47
2018-03-16T00:12:55.083Z,16.03
2018-03-16T00:15:22.903Z,15.17
2018-03-16T00:17:50.438Z,14.13
2018-03-16T00:20:18.703Z,15.17
2018-03-16T00:31:20.212Z,15.40
2018-03-16T00:33:48.478Z,15.30
2018-03-16T00:36:15.973Z,15.07
2018-03-16T00:38:43.498Z,15.90
2018-03-16T00:41:10.997Z,15.47
2018-03-16T00:43:38.523Z,15.87
2018-03-16T00:46:06.787Z,15.60
2018-03-16T00:48:34.288Z,15.10
2018-03-16T00:51:01.822Z,15.20
2018-03-16T00:53:30.082Z,15.90
2018-03-16T00:55:57.606Z,15.40
2018-03-16T00:58:25.106Z,16.97
2018-03-16T01:00:53.375Z,15.77
2018-03-16T01:03:20.894Z,16.40
2018-03-16T01:05:48.395Z,16.30
2018-03-16T01:08:15.914Z,16.60
2018-03-16T01:10:43.409Z,17.47
2018-03-16T01:13:10.907Z,17.50
2018-03-16T01:15:38.430Z,17.53
2018-03-16T01:18:05.930Z,17.03
2018-03-16T01:20:39.071Z,16.90
2018-03-16T01:23:06.566Z,17.00
2018-03-16T01:25:34.067Z,16.67
2018-03-16T01:28:01.593Z,16.70
2018-03-16T01:30:29.086Z,17.80
2018-03-16T01:32:56.607Z,17.50
2018-03-16T01:35:24.106Z,18.57
2018-03-16T01:37:51.601Z,16.70
2018-03-16T01:40:19.891Z,18.30
2018-03-16T01:42:47.389Z,18.00
2018-03-16T01:45:14.910Z,18.30
2018-03-16T01:47:42.430Z,19.50
2018-03-16T01:50:09.930Z,18.80
2018-03-16T01:52:37.454Z,18.60
2018-03-16T01:55:04.958Z,19.00
2018-03-16T01:57:32.482Z,20.00
2018-03-16T02:00:00.750Z,18.10
2018-03-16T02:02:29.042Z,17.50
2018-03-16T02:04:57.311Z,17.83
2018-03-16T02:07:25.579Z,17.60
2018-03-16T02:09:53.862Z,17.67
2018-03-16T02:12:22.125Z,17.03
2018-03-16T02:14:49.642Z,19.30
2018-03-16T02:17:17.214Z,18.27
2018-03-16T02:19:44.718Z,17.40
2018-03-16T02:22:13.009Z,18.20
2018-03-16T02:24:40.513Z,18.37
2018-03-16T02:27:08.036Z,18.40
2018-03-16T02:29:35.538Z,19.13
2018-03-16T02:32:03.039Z,19.53
2018-03-16T02:34:30.563Z,17.93
2018-03-16T02:36:58.066Z,18.43
2018-03-16T02:39:25.591Z,18.13
2018-03-16T02:41:53.091Z,19.27
2018-03-16T02:44:20.619Z,19.53
2018-03-16T02:46:48.891Z,19.03
2018-03-16T02:49:17.159Z,19.10
2018-03-16T02:51:44.682Z,19.70
2018-03-16T02:54:12.179Z,18.93
2018-03-16T02:56:39.703Z,19.47
2018-03-16T02:59:07.202Z,19.33
2018-03-16T03:01:35.496Z,20.27
2018-03-16T03:04:03.010Z,18.30
2018-03-16T03:06:30.510Z,19.27
2018-03-16T03:08:58.030Z,19.60
2018-03-16T03:11:25.530Z,20.20
2018-03-16T03:13:53.054Z,20.37
2018-03-16T03:16:20.550Z,19.87
2018-03-16T03:18:48.057Z,20.27
2018-03-16T03:21:15.578Z,21.17
2018-03-16T03:23:43.078Z,24.97
2018-03-16T03:26:10.599Z,25.90
2018-03-16T03:28:38.098Z,26.10
2018-03-16T03:31:05.606Z,24.40
2018-03-16T03:33:33.130Z,23.80
2018-03-16T03:36:00.630Z,23.77
2018-03-16T03:38:28.157Z,23.80
2018-03-16T03:40:56.428Z,22.80
2018-03-16T03:43:24.702Z,25.80
2018-03-16T03:45:53.002Z,24.47
2018-03-16T03:48:20.501Z,23.63
2018-03-16T03:50:48.022Z,24.90
2018-03-16T03:53:15.522Z,24.67
2018-03-16T03:55:43.021Z,23.60
2018-03-16T03:58:11.310Z,25.30
2018-03-16T04:00:38.805Z,23.60
2018-03-16T04:03:06.322Z,22.33
2018-03-16T04:05:34.586Z,22.60
2018-03-16T04:08:02.876Z,22.60
2018-03-16T04:10:31.142Z,20.67
2018-03-16T04:12:59.406Z,22.07
2018-03-16T04:15:26.930Z,22.30
2018-03-16T04:17:55.195Z,21.63
2018-03-16T04:20:22.718Z,22.30
2018-03-16T04:22:50.986Z,22.07
2018-03-16T04:25:19.251Z,21.87
2018-03-16T04:27:46.778Z,20.90
2018-03-16T04:30:14.278Z,31.53
2018-03-16T04:32:42.562Z,24.07
2018-03-16T04:35:10.826Z,21.93
2018-03-16T04:37:39.118Z,23.30
2018-03-16T04:40:07.387Z,21.67
2018-03-16T04:42:35.654Z,21.83
2018-03-16T04:45:03.950Z,21.53
2018-03-16T04:47:32.218Z,21.40
2018-03-16T04:50:00.506Z,21.57
2018-03-16T04:52:28.007Z,22.03
2018-03-16T04:54:55.533Z,23.23
2018-03-16T04:57:23.034Z,22.93
2018-03-16T04:59:50.530Z,23.10
2018-03-16T05:02:18.818Z,22.30
2018-03-16T05:04:46.318Z,21.93
2018-03-16T05:07:13.838Z,23.10
2018-03-16T05:09:41.338Z,22.83
2018-03-16T05:12:08.865Z,20.97
2018-03-16T05:14:36.363Z,21.73
2018-03-16T05:17:03.882Z,22.43
2018-03-16T05:19:31.386Z,22.37
2018-03-16T05:21:58.914Z,22.43
2018-03-16T05:24:26.414Z,22.60
2018-03-16T05:26:53.914Z,22.30
2018-03-16T05:29:21.434Z,24.40
2018-03-16T05:31:49.710Z,23.67
2018-03-16T05:34:17.235Z,23.40
2018-03-16T05:36:44.738Z,23.80
2018-03-16T05:39:13.017Z,23.83
2018-03-16T05:41:41.283Z,23.90
2018-03-16T05:44:08.782Z,24.60
2018-03-16T05:46:36.306Z,25.77
2018-03-16T05:49:04.587Z,25.77
2018-03-16T05:51:32.878Z,24.93
2018-03-16T05:54:00.378Z,25.93
2018-03-16T05:56:27.902Z,24.70
2018-03-16T05:58:55.402Z,25.10
2018-03-16T06:01:22.903Z,26.53
2018-03-16T06:03:51.193Z,28.60
2018-03-16T06:06:18.698Z,29.27
2018-03-16T06:08:46.986Z,27.70
2018-03-16T06:11:14.486Z,27.43
2018-03-16T06:13:42.012Z,26.47
2018-03-16T06:16:09.511Z,28.30
2018-03-16T06:18:37.011Z,51.60
2018-03-16T06:21:04.538Z,28.00
2018-03-16T06:23:32.038Z,27.57
2018-03-16T06:25:59.563Z,26.93
2018-03-16T06:28:27.058Z,28.40
2018-03-16T06:30:54.582Z,25.90
2018-03-16T06:33:22.082Z,28.20
2018-03-16T06:35:49.579Z,27.87
2018-03-16T06:38:17.102Z,25.67
2018-03-16T06:40:45.374Z,26.23
2018-03-16T06:43:12.897Z,28.40
2018-03-16T06:45:41.162Z,26.50
2018-03-16T06:48:08.689Z,29.93
2018-03-16T06:50:36.955Z,27.20
2018-03-16T06:53:05.222Z,27.60
2018-03-16T06:55:33.510Z,26.70
2018-03-16T06:58:01.775Z,27.73
2018-03-16T07:00:30.062Z,27.87
2018-03-16T07:02:58.326Z,25.37
2018-03-16T07:05:25.850Z,26.97
2018-03-16T07:07:53.349Z,27.47
2018-03-16T07:10:21.623Z,26.67
2018-03-16T07:12:49.906Z,26.33
2018-03-16T07:15:30.233Z,28.17
2018-03-16T07:17:57.786Z,25.33
2018-03-16T07:20:25.270Z,26.70
2018-03-16T07:22:52.791Z,28.07
2018-03-16T07:25:20.295Z,25.13
2018-03-16T07:27:48.559Z,24.07
2018-03-16T07:30:16.083Z,24.60
2018-03-16T07:32:43.642Z,25.57
2018-03-16T07:35:11.889Z,26.80
2018-03-16T07:37:39.403Z,22.10
2018-03-16T07:40:06.902Z,23.73
2018-03-16T07:42:34.426Z,23.30
2018-03-16T07:45:01.932Z,23.53
2018-03-16T07:47:29.454Z,25.13
2018-03-16T07:49:57.723Z,24.07
2018-03-16T07:52:25.247Z,23.07
2018-03-16T07:54:53.510Z,26.03
2018-03-16T07:57:21.011Z,23.47
2018-03-16T07:59:48.535Z,24.00
2018-03-16T08:02:16.035Z,22.73
2018-03-16T08:04:43.558Z,24.80
2018-03-16T08:07:11.058Z,27.77
2018-03-16T08:09:39.353Z,40.50
2018-03-16T08:12:07.622Z,27.50
2018-03-16T08:14:35.898Z,30.40
2018-03-16T08:17:03.427Z,28.07
2018-03-16T08:19:30.917Z,33.60
2018-03-16T08:21:59.211Z,29.40
2018-03-16T08:24:27.530Z,25.83
2018-03-16T08:26:55.054Z,25.10
2018-03-16T08:29:22.554Z,24.73
2018-03-16T08:31:50.056Z,23.40
2018-03-16T08:34:17.583Z,24.23
2018-03-16T08:36:45.085Z,22.40
2018-03-16T08:39:12.648Z,22.80
2018-03-16T08:41:40.130Z,19.17
2018-03-16T08:44:07.658Z,19.07
2018-03-16T08:46:35.158Z,20.47
2018-03-16T08:49:02.666Z,19.53
2018-03-16T08:51:30.191Z,20.80
2018-03-16T08:53:57.690Z,18.53
2018-03-16T08:56:25.215Z,17.77
2018-03-16T08:58:52.714Z,15.43
2018-03-16T09:01:20.490Z,15.20
2018-03-16T09:03:48.002Z,16.37
2018-03-16T09:06:16.267Z,14.70
2018-03-16T09:08:43.782Z,14.23
2018-03-16T09:11:11.282Z,15.23
2018-03-16T09:13:38.801Z,17.37
2018-03-16T09:16:06.302Z,14.60
2018-03-16T09:18:34.147Z,14.43
2018-03-16T09:21:01.682Z,14.90
2018-03-16T09:23:29.186Z,13.53
2018-03-16T09:25:56.706Z,14.67
2018-03-16T09:28:24.211Z,12.93
2018-03-16T09:30:52.506Z,14.07
2018-03-16T09:33:20.853Z,14.57
2018-03-16T09:35:48.368Z,14.33
2018-03-16T09:38:15.904Z,14.10
2018-03-16T09:40:43.415Z,14.33
2018-03-16T09:43:10.938Z,14.20
2018-03-16T09:45:38.458Z,15.10
2018-03-16T09:48:06.754Z,15.97
2018-03-16T09:50:34.286Z,15.67
2018-03-16T09:53:01.779Z,13.17
2018-03-16T09:55:47.052Z,13.60
2018-03-16T09:58:14.559Z,13.00
2018-03-16T10:00:42.083Z,13.57
2018-03-16T10:03:09.592Z,11.37
2018-03-16T10:05:37.112Z,11.63
2018-03-16T10:08:04.605Z,11.63
2018-03-16T10:10:32.102Z,10.60
2018-03-16T10:12:59.633Z,13.00
2018-03-16T10:15:27.900Z,9.50
2018-03-16T10:17:55.423Z,10.17
2018-03-16T10:20:22.926Z,9.10
2018-03-16T10:22:50.450Z,10.00
2018-03-16T10:25:17.951Z,9.50
2018-03-16T10:27:46.235Z,9.03
2018-03-16T10:30:14.522Z,9.23
2018-03-16T10:32:42.023Z,9.70
2018-03-16T10:35:09.546Z,9.30
2018-03-16T10:37:37.050Z,8.97
2018-03-16T10:40:04.750Z,8.60
2018-03-16T10:42:33.015Z,8.30
2018-03-16T10:45:01.279Z,7.70
2018-03-16T10:47:28.793Z,7.60
2018-03-16T10:49:56.286Z,7.00
2018-03-16T10:52:23.803Z,7.87
2018-03-16T10:54:51.298Z,8.53
2018-03-16T10:57:19.610Z,8.43
2018-03-16T10:59:47.095Z,8.87
2018-03-16T11:02:19.586Z,8.30
2018-03-16T11:04:52.906Z,9.33
2018-03-16T11:07:20.423Z,8.97
2018-03-16T11:09:47.922Z,9.60
2018-03-16T11:12:15.427Z,8.60
2018-03-16T11:14:42.952Z,8.90
2018-03-16T11:17:10.446Z,6.53
2018-03-16T11:19:37.965Z,5.97
2018-03-16T11:22:05.468Z,6.13
2018-03-16T11:24:32.991Z,6.20
2018-03-16T11:27:00.486Z,6.80
2018-03-16T11:29:27.987Z,6.43
2018-03-16T11:31:55.516Z,5.73
2018-03-16T11:34:23.018Z,4.50
2018-03-16T11:36:50.542Z,6.80
2018-03-16T11:39:18.037Z,5.50
2018-03-16T11:41:45.554Z,6.20
2018-03-16T11:44:13.050Z,4.97
2018-03-16T11:46:40.538Z,5.83
2018-03-16T11:49:08.867Z,5.40
2018-03-16T11:51:36.342Z,5.10
2018-03-16T11:54:03.866Z,5.20
2018-03-16T11:56:31.358Z,3.87
2018-03-16T11:58:58.858Z,4.77
2018-03-16T12:01:26.386Z,4.60
2018-03-16T12:03:54.658Z,3.40
2018-03-16T12:06:22.178Z,3.57
2018-03-16T12:08:49.670Z,3.70
2018-03-16T12:11:17.475Z,3.67
2018-03-16T12:13:44.974Z,3.57
2018-03-16T12:16:12.466Z,3.40
2018-03-16T12:18:40.758Z,3.70
2018-03-16T12:21:09.022Z,3.60
2018-03-16T12:23:37.310Z,3.50
2018-03-16T12:26:05.570Z,3.10
2018-03-16T12:28:49.434Z,3.60
2018-03-16T12:31:00.635Z,3.23
2018-03-16T12:33:28.126Z,3.33
2018-03-16T12:35:55.650Z,3.27
2018-03-16T12:38:23.159Z,3.27
2018-03-16T12:40:50.689Z,3.40
2018-03-16T12:43:18.190Z,3.03
2018-03-16T12:45:46.474Z,3.30
2018-03-16T12:48:14.739Z,3.57
2018-03-16T12:50:43.004Z,4.00
2018-03-16T12:53:11.302Z,3.63
2018-03-16T12:55:39.565Z,3.60
2018-03-16T12:58:07.905Z,3.40
2018-03-16T13:00:35.366Z,3.23
2018-03-16T13:03:02.887Z,3.00
2018-03-16T13:05:30.386Z,2.53
2018-03-16T13:07:57.898Z,2.70
2018-03-16T13:10:25.423Z,2.77
2018-03-16T13:12:52.927Z,2.90
2018-03-16T13:15:20.465Z,3.30
2018-03-16T13:17:47.966Z,2.97
2018-03-16T13:20:15.486Z,2.87
2018-03-16T13:22:42.991Z,2.60
2018-03-16T13:25:10.487Z,2.17
2018-03-16T13:27:38.775Z,2.00
2018-03-16T13:30:07.042Z,2.40
2018-03-16T13:32:35.322Z,2.50
2018-03-16T13:35:03.587Z,2.83
2018-03-16T13:37:31.878Z,3.43
2018-03-16T13:40:00.146Z,3.63
2018-03-16T13:42:28.402Z,3.40
2018-03-16T13:44:55.919Z,3.10
2018-03-16T13:47:23.415Z,2.20
2018-03-16T13:49:50.931Z,1.87
2018-03-16T13:52:18.426Z,1.90
2018-03-16T13:54:45.947Z,2.17
2018-03-16T13:57:13.446Z,2.27
2018-03-16T13:59:40.944Z,2.10
2018-03-16T14:02:09.232Z,2.03
2018-03-16T14:04:37.588Z,2.10
2018-03-16T14:07:05.872Z,2.13
2018-03-16T14:09:34.134Z,2.43
2018-03-16T14:12:02.427Z,2.20
2018-03-16T14:14:30.690Z,1.87
2018-03-16T14:16:58.975Z,2.33
2018-03-16T14:19:27.243Z,2.30
2018-03-16T14:21:55.510Z,2.53
2018-03-16T14:24:23.026Z,2.60
2018-03-16T14:26:50.518Z,2.00
2018-03-16T14:29:18.038Z,2.30
2018-03-16T14:31:45.538Z,2.60
2018-03-16T14:34:13.062Z,2.60
2018-03-16T14:36:40.558Z,3.00
2018-03-16T14:39:08.807Z,2.70
2018-03-16T14:41:36.336Z,3.07
2018-03-16T14:44:03.835Z,2.97
2018-03-16T14:46:31.358Z,4.57
2018-03-16T14:48:58.859Z,3.50
2018-03-16T14:51:26.383Z,3.63
2018-03-16T14:53:53.888Z,3.53
2018-03-16T14:56:21.391Z,3.33
2018-03-16T14:58:48.910Z,3.63
2018-03-16T15:01:17.175Z,3.80
2018-03-16T15:03:44.703Z,4.00
2018-03-16T15:06:12.203Z,3.70
2018-03-16T15:08:40.499Z,3.70
2018-03-16T15:11:07.998Z,3.83
2018-03-16T15:13:35.506Z,4.27
2018-03-16T15:16:03.795Z,4.10
2018-03-16T15:18:31.302Z,4.20
2018-03-16T15:20:58.818Z,4.17
2018-03-16T15:23:26.319Z,3.60
2018-03-16T15:25:53.851Z,4.03
2018-03-16T15:28:21.354Z,3.83
2018-03-16T15:30:48.850Z,3.80
2018-03-16T15:33:16.373Z,4.37
2018-03-16T15:35:43.870Z,3.70
2018-03-16T15:38:11.406Z,4.23
2018-03-16T15:40:39.662Z,4.13
2018-03-16T15:43:07.184Z,3.87
2018-03-16T15:45:34.679Z,4.10
2018-03-16T15:48:02.214Z,3.87
2018-03-16T15:50:29.723Z,4.47
2018-03-16T15:52:57.978Z,4.30
2018-03-16T15:55:25.495Z,4.30
2018-03-16T15:57:52.990Z,4.20
2018-03-16T16:00:20.506Z,3.77
2018-03-16T16:02:48.010Z,4.70
2018-03-16T16:05:15.506Z,5.00
2018-03-16T16:07:43.022Z,4.73
2018-03-16T16:10:10.514Z,5.43
2018-03-16T16:12:38.038Z,5.00
2018-03-16T16:15:05.597Z,4.27
2018-03-16T16:17:33.046Z,4.50
2018-03-16T16:20:00.568Z,4.43
2018-03-16T16:22:28.062Z,3.93
2018-03-16T16:24:55.579Z,4.40
2018-03-16T16:27:23.130Z,4.23
2018-03-16T16:29:50.654Z,4.40
2018-03-16T16:32:18.147Z,3.80
2018-03-16T16:34:45.672Z,4.23
2018-03-16T16:37:13.167Z,4.43
2018-03-16T16:39:40.671Z,4.53
2018-03-16T16:42:08.186Z,3.70
2018-03-16T16:44:35.678Z,3.40
2018-03-16T16:47:03.196Z,3.60
2018-03-16T16:49:30.690Z,4.30
2018-03-16T16:51:58.210Z,4.03
2018-03-16T16:54:25.706Z,3.93
2018-03-16T16:56:53.202Z,4.50
2018-03-16T16:59:21.490Z,4.80
2018-03-16T17:01:49.747Z,4.10
2018-03-16T17:04:17.268Z,3.80
2018-03-16T17:06:44.762Z,3.57
2018-03-16T17:09:12.283Z,3.43
2018-03-16T17:11:39.779Z,3.50
2018-03-16T17:14:07.307Z,3.17
2018-03-16T17:16:34.852Z,3.20
2018-03-16T17:19:02.339Z,3.10
2018-03-16T17:21:29.855Z,3.13
2018-03-16T17:23:57.350Z,3.17
2018-03-16T17:26:24.866Z,3.47
2018-03-16T17:28:52.358Z,4.00
2018-03-16T17:31:19.873Z,5.77
2018-03-16T17:33:48.159Z,4.47
2018-03-16T17:36:15.659Z,5.03
2018-03-16T17:38:43.191Z,4.20
2018-03-16T17:41:10.690Z,14.70
2018-03-16T17:43:38.191Z,11.40
2018-03-16T17:46:05.711Z,5.10
2018-03-16T17:48:33.206Z,8.33
2018-03-16T17:51:00.731Z,4.57
2018-03-16T17:53:28.230Z,4.83
2018-03-16T17:55:55.722Z,5.73
2018-03-16T17:58:23.243Z,6.30
2018-03-16T18:00:50.739Z,5.23
2018-03-16T18:03:18.259Z,4.80
2018-03-16T18:05:45.762Z,14.00
2018-03-16T18:08:13.271Z,12.77
2018-03-16T18:10:40.786Z,4.03
2018-03-16T18:13:08.295Z,3.50
2018-03-16T18:15:35.869Z,4.73
2018-03-16T18:18:03.367Z,3.87
2018-03-16T18:20:30.858Z,4.03
2018-03-16T18:22:59.138Z,2.60
2018-03-16T18:25:27.450Z,3.20
2018-03-16T18:27:55.710Z,2.70
2018-03-16T18:30:23.208Z,2.57
2018-03-16T18:32:50.735Z,2.80
2018-03-16T18:35:18.243Z,2.00
2018-03-16T18:37:46.514Z,1.83
2018-03-16T18:40:14.043Z,2.80
2018-03-16T18:42:41.539Z,4.60
2018-03-16T18:45:09.059Z,5.00
2018-03-16T18:47:36.559Z,5.40
2018-03-16T18:50:05.410Z,6.30
2018-03-16T18:52:32.902Z,6.90
2018-03-16T18:55:01.174Z,6.30
2018-03-16T18:57:28.690Z,6.13
2018-03-16T18:59:56.182Z,6.60
2018-03-16T19:02:23.699Z,6.17
2018-03-16T19:04:51.190Z,6.70
2018-03-16T19:07:18.707Z,6.60
2018-03-16T19:09:46.202Z,5.80
2018-03-16T19:12:13.699Z,6.50
2018-03-16T19:14:41.989Z,6.03
2018-03-16T19:17:09.491Z,6.27
2018-03-16T19:19:37.006Z,5.67
2018-03-16T19:22:04.498Z,5.60
2018-03-16T19:24:31.991Z,5.97
2018-03-16T19:26:59.513Z,5.93
2018-03-16T19:29:27.006Z,5.67
2018-03-16T19:31:54.527Z,5.50
2018-03-16T19:34:22.020Z,5.90
2018-03-16T19:36:49.543Z,5.60
2018-03-16T19:39:17.038Z,5.40
2018-03-16T19:41:44.530Z,4.73
2018-03-16T19:44:12.050Z,4.87
2018-03-16T19:46:39.542Z,4.90
2018-03-16T19:49:07.823Z,4.73
2018-03-16T19:51:36.078Z,4.40
2018-03-16T19:54:03.599Z,3.90
2018-03-16T19:56:31.104Z,4.30
2018-03-16T19:58:59.363Z,3.60
2018-03-16T20:01:26.879Z,3.93
2018-03-16T20:03:54.374Z,4.00
2018-03-16T20:06:21.899Z,4.40
2018-03-16T20:08:49.390Z,4.80
2018-03-16T20:11:16.907Z,5.80
2018-03-16T20:13:44.402Z,5.50
2018-03-16T20:16:11.898Z,6.53
2018-03-16T20:18:40.182Z,6.37
2018-03-16T20:21:07.674Z,6.60
2018-03-16T20:23:35.199Z,13.30
2018-03-16T20:26:02.706Z,100.53
2018-03-16T20:28:30.230Z,7.47
2018-03-16T20:30:57.739Z,8.47
2018-03-16T20:33:25.233Z,8.13
2018-03-16T20:35:52.751Z,8.47
2018-03-16T20:38:20.247Z,8.50
2018-03-16T20:40:47.775Z,8.23
2018-03-16T20:43:15.275Z,8.37
2018-03-16T20:45:42.798Z,9.80
2018-03-16T20:48:11.067Z,9.60
2018-03-16T20:50:38.566Z,9.67
2018-03-16T20:53:06.092Z,10.23
2018-03-16T20:55:33.587Z,10.10
2018-03-16T20:58:01.106Z,9.60
2018-03-16T21:00:28.608Z,10.00
2018-03-16T21:02:56.126Z,10.87
2018-03-16T21:05:23.623Z,11.10
2018-03-16T21:07:51.140Z,11.00
2018-03-16T21:10:18.662Z,10.70
2018-03-16T21:12:46.158Z,10.87
2018-03-16T21:15:13.679Z,11.97
2018-03-16T21:17:41.174Z,11.87
2018-03-16T21:20:08.713Z,11.53
2018-03-16T21:22:36.218Z,11.83
2018-03-16T21:25:03.718Z,11.80
2018-03-16T21:27:31.243Z,11.47
2018-03-16T21:29:58.746Z,11.60
2018-03-16T21:32:26.267Z,12.33
2018-03-16T21:34:53.766Z,13.63
2018-03-16T21:37:21.286Z,12.30
2018-03-16T21:39:48.791Z,12.90
2018-03-16T21:42:16.292Z,12.50
2018-03-16T21:44:43.819Z,12.90
2018-03-16T21:47:11.318Z,13.30
2018-03-16T21:49:38.843Z,13.10
2018-03-16T21:52:07.110Z,13.10
2018-03-16T21:54:34.635Z,12.87
2018-03-16T21:57:02.138Z,12.13
2018-03-16T21:59:30.410Z,13.57
2018-03-16T22:01:58.698Z,12.73
2018-03-16T22:04:26.968Z,13.87
2018-03-16T22:06:55.259Z,12.90
2018-03-16T22:09:22.763Z,13.50
2018-03-16T22:11:50.291Z,14.17
2018-03-16T22:14:17.795Z,13.10
2018-03-16T22:16:45.302Z,13.13
2018-03-16T22:19:12.822Z,12.30
2018-03-16T22:21:40.326Z,12.50
2018-03-16T22:24:07.851Z,12.67
2018-03-16T22:26:36.119Z,11.83
2018-03-16T22:29:03.642Z,12.93
2018-03-16T22:31:31.137Z,12.60
2018-03-16T22:33:59.406Z,14.13
2018-03-16T22:36:26.930Z,13.07
2018-03-16T22:38:54.435Z,13.57
2018-03-16T22:41:22.721Z,12.80
2018-03-16T22:43:50.989Z,13.00
2018-03-16T22:46:19.283Z,12.50
2018-03-16T22:48:46.786Z,14.30
2018-03-16T22:51:14.282Z,14.37
2018-03-16T22:53:42.571Z,12.67
2018-03-16T22:56:10.830Z,12.63
2018-03-16T22:58:38.355Z,13.70
2018-03-16T23:01:05.859Z,13.47
2018-03-16T23:03:34.122Z,13.87
2018-03-16T23:06:01.639Z,14.27
2018-03-16T23:08:29.134Z,15.70
2018-03-16T23:10:56.651Z,15.60
2018-03-16T23:13:24.151Z,15.63
2018-03-16T23:15:51.670Z,14.23
2018-03-16T23:18:19.175Z,16.20
2018-03-16T23:20:47.439Z,16.90
2018-03-16T23:23:14.962Z,16.83
2018-03-16T23:25:42.458Z,16.80
2018-03-16T23:28:09.979Z,16.90
2018-03-16T23:30:37.479Z,17.90
2018-03-16T23:33:05.007Z,16.10
2018-03-16T23:35:33.270Z,16.27
2018-03-16T23:38:00.770Z,17.63
2018-03-16T23:40:28.287Z,17.10
2018-03-16T23:42:55.786Z,15.60
2018-03-16T23:45:23.310Z,19.77
2018-03-16T23:47:50.806Z,18.00
2018-03-16T23:50:18.335Z,18.10
2018-03-16T23:52:45.839Z,18.17
2018-03-16T23:55:14.114Z,18.40
2018-03-16T23:57:42.411Z,18.60
